Delta, Utah Weather observations

Data are for observation ending at time listed.
 Day   Time    Ave.   Ave.  Ave.  Vector   Max.   Stn.    Total    Solar   Ave.  
  of    of     Air    Rel.  Wind   Wind    Wind   Baro.  Precip.   Rad.    Soil  
Year   Day     Temp.  Hum.  Speed  Dir.    Gust   Pres.                    Temp. 
2015   (MST)    F      %     mph   deg.    mph     mb.     in.     W/m2     F   
------------------------------------------------------------------------------
 211    6:50   61.7    32    0.3    48      1.3   867.0    0.00     175    54.7
 211    7:00   63.3    32    0.5     0      1.2   867.1    0.00     201    55.5
 211    7:10   66.7    30    0.0     8      1.0   867.2    0.00     227    58.0
 211    7:20   68.3    26    0.5    26      1.7   867.2    0.00     254    61.8
 211    7:30   68.5    28    0.8    59      2.5   867.3    0.00     286    66.2
 211    7:40   67.8    28    1.0    45      2.0   867.4    0.00     312    70.6
 211    7:50   68.5    28    1.1    56      2.9   867.5    0.00     337    74.4
 211    8:00   68.7    27    1.5    19      3.0   867.4    0.00     363    78.0
 211    8:10   68.4    27    1.6    26      3.4   867.5    0.00     389    81.2
 211    8:20   69.7    26    1.9    52      3.4   867.6    0.00     416    84.0
 211    8:30   71.8    25    0.5   131      2.1   867.6    0.00     443    86.7
 211    8:40   74.3    23    0.6   102      2.4   867.7    0.00     469    89.3
 211    8:50   75.5    22    0.3   141      1.8   867.7    0.00     494    92.2
 211    9:00   77.8    21    0.4    65      1.4   867.5    0.00     522    95.3
 211    9:10   78.9    21    0.4   109      2.8   867.4    0.00     547    98.4
 211    9:20   79.7    20    1.2   138      3.6   867.4    0.00     565    101.6
 211    9:30   80.4    18    3.3    26      6.5   867.4    0.00     580    104.4
 211    9:40   81.1    17    3.0    33      7.5   867.3    0.00     600    106.9
 211    9:50   82.0    16    3.1    27      6.9   867.3    0.00     618    109.0
 211   10:00   82.7    15    3.0    31      8.6   867.3    0.00     654    110.8
 211   10:10   83.2    15    2.5     7      6.7   867.3    0.00     622    112.5
 211   10:20   83.7    15    2.6    21      5.3   867.2    0.00     682    114.1
 211   10:30   84.7    15    2.6    28      7.6   867.2    0.00     663    115.5
 211   10:40   85.0    13    3.1     3      7.4   867.2    0.00     675    116.7
 211   10:50   85.8    13    2.4     1      6.2   867.1    0.00     735    117.6
 211   11:00   86.9    12    2.8     4      6.9   867.1    0.00     747    118.5
 211   11:10   87.7    12    1.9   352      5.8   867.0    0.00     731    119.8
 211   11:20   88.7    12    2.5   342      7.7   866.9    0.00     742    121.0
 211   11:30   88.4    11    1.9   332      7.5   866.9    0.00     727    122.2
 211   11:40   89.4    11    2.0    34      4.8   866.8    0.00     751    123.1
 211   11:50   89.6    10    2.0   308      7.7   866.8    0.00     733    124.2
 211   12:00   90.1    10    2.1     1      9.3   866.7    0.00     788    125.2
 211   12:10   90.0    10    2.9   310      6.6   866.6    0.00     796    126.2
 211   12:20   90.3    10    3.3   298      8.0   866.5    0.00     799    127.0
 211   12:30   90.6    11    4.1   340      8.8   866.4    0.00     824    127.5
 211   12:40   90.7    11    3.4   331     10.3   866.3    0.00     793    128.0
 211   12:50   91.2    10    3.2   302      6.6   866.2    0.00     740    128.5
 211   13:00   91.0    10    3.6   303      7.4   866.2    0.00     742    128.8
 211   13:10   91.3    10    2.8   307      7.2   866.1    0.00     803    128.8
 211   13:20   91.9    11    3.6   323      9.2   866.0    0.00     732    129.2
 211   13:30   91.4    10    3.7   312      7.7   866.0    0.00     569    129.3
 211   13:40   91.0    10    3.3   296      7.5   865.9    0.00     657    128.8
 211   13:50   91.2    10    3.5   311      7.1   865.8    0.00     727    128.4
 211   14:00   91.7    10    4.0   316      9.6   865.7    0.00     764    128.5
 211   14:10   91.7    10    3.8   311      7.5   865.7    0.00     754    128.9
 211   14:20   91.6    10    2.5   291      6.1   865.5    0.00     739    129.4
 211   14:30   92.2    10    2.8   300      6.7   865.4    0.00     723    130.2
 211   14:40   92.6    10    3.7   334     10.4   865.3    0.00     706    131.2
 211   14:50   92.5    10    3.8   334      8.6   865.2    0.00     693    132.1
 211   15:00   92.8    10    1.9   307      6.1   865.0    0.00     667    132.8
 211   15:10   93.1     9    3.0   296      7.0   864.9    0.00     158    133.5
 211   15:20   92.8     9    2.8   328      7.2   864.8    0.00     301    133.9
 211   15:30   92.2     9    3.5    18      8.7   864.7    0.00     467    133.8
 211   15:40   92.3    10    2.8   283      7.2   864.6    0.00     550    133.2
 211   15:50   93.1     9    3.2   274      7.4   864.5    0.00     338    132.9
 211   16:00   92.1     9    2.1   283      4.9   864.4    0.00     517    132.3
 211   16:10   92.0    10    1.3   188      3.3   864.3    0.00     455    130.9
 211   16:20   91.1     9    1.2   147      3.7   864.2    0.00     304    128.5
 211   16:30   91.3    10    2.6   293      5.6   864.2    0.00     259    126.0
 211   16:40   92.5    10    2.3   293      6.1   864.1    0.00     511    124.0
 211   16:50   92.4     9    2.7   278      7.1   864.0    0.00     187    123.1
 211   17:00   92.3     9    3.2   299      8.3   864.0    0.00     154    122.2
 211   17:10   92.1     9    2.1   309      6.8   863.9    0.00     341    121.1
 211   17:20   91.9    10    2.5   312      6.1   863.8    0.00     256    119.9
 211   17:30   91.8    10    2.6   300      6.1   863.7    0.00     256    118.8
 211   17:40   91.9    10    3.1   319      5.6   863.7    0.00     211    117.9
 211   17:50   92.1    10    3.2   320      7.4   863.7    0.00     178    117.5
 211   18:00   91.8    10    3.5   328      8.5   863.7    0.00      44    117.6
 211   18:10   91.5    10    3.3   311      6.4   863.6    0.00      90    118.8
 211   18:20   91.3    10    3.1   320      6.5   863.6    0.00     196    120.0
 211   18:30   91.2    10    3.7   342     10.8   863.6    0.00     168    121.0
 211   18:40   90.6    10    3.2   338      7.4   863.7    0.00      98    121.5
 211   18:50   90.2    10    2.1   329      5.9   863.7    0.00      24    121.4
 211   19:00   89.8    10    1.9   327      3.7   863.6    0.00      24    121.0
 211   19:10   88.4    11    2.1   338      4.2   863.7    0.00      22    119.9
 211   19:20   86.9    12    1.8   352      4.8   863.7    0.00      15    117.6
 211   19:30   85.7    12    1.9     0      4.4   863.7    0.00      10    114.4
 211   19:40   84.9    12    2.4   352      5.6   863.8    0.00       6    111.2
 211   19:50   85.1    11    3.2     3      6.7   863.9    0.00       2    108.3
 211   20:00   84.7    11    3.0    33      6.9   864.0    0.00       0    105.9
 211   20:10   83.7    12    2.9    44      7.5   864.1    0.00       0    103.8
 211   20:20   83.1    12    3.8    48      8.6   864.1    0.00       0    101.9
 211   20:30   82.5    12    3.5    43      7.6   864.1    0.00       0    100.3
 211   20:40   81.7    13    3.8    45      8.8   864.2    0.00       0    98.8
 211   20:50   81.0    13    3.2    48      7.8   864.3    0.00       0    97.4
 211   21:00   80.4    13    3.6    45      7.7   864.4    0.00       0    96.0
 211   21:10   80.2    13    3.5    42      8.0   864.4    0.00       0    94.8
 211   21:20   80.4    13    3.5    45      8.0   864.5    0.00       0    93.8
 211   21:30   80.3    13    3.5    47      7.6   864.6    0.00       0    93.0
 211   21:40   80.3    13    3.1    42      6.9   864.6    0.00       0    92.5
 211   21:50   80.0    13    3.0    48      7.7   864.6    0.00       0    92.0
 211   22:00   78.5    14    2.8    26      7.3   864.7    0.00       0    91.4
 211   22:10   77.6    14    2.9    19      7.3   864.7    0.00       0    90.4
 211   22:20   77.9    14    3.8    13      9.2   864.7    0.00       0    89.2
 211   22:30   77.7    14    3.4     7      8.2   864.7    0.00       0    88.5
 211   22:40   76.7    14    3.0    12      6.3   864.7    0.00       0    87.9
 211   22:50   76.5    14    3.2     8      6.2   864.7    0.00       0    87.2
 211   23:00   76.8    14    3.6     3      6.9   864.8    0.00       0    86.6
 211   23:10   76.9    14    2.6    12      5.5   864.8    0.00       0    86.3
 211   23:20   76.3    15    2.2    40      5.0   864.8    0.00       0    86.0
 211   23:30   76.9    14    2.3    20      5.7   864.8    0.00       0    85.6
 211   23:40   77.0    14    3.1   354      6.6   864.8    0.00       0    85.3
 211   23:50   75.3    14    3.6   357      6.5   864.7    0.00       0    85.1
 212    0:00   74.8    15    3.6   357      5.8   864.6    0.00       0    84.7
 212    0:10   74.3    16    2.2     8      5.4   864.6    0.00       0    84.1
 212    0:20   72.5    18    2.5   343      5.7   864.7    0.00       0    83.2
 212    0:30   71.7    18    2.7   342      4.9   864.6    0.00       0    82.0
 212    0:40   70.4    20    2.9   341      5.5   864.7    0.00       0    80.5
 212    0:50   69.3    20    2.9   351      5.0   864.7    0.00       0    79.1
 212    1:00   69.1    21    1.6    32      3.9   864.7    0.00       0    77.8
 212    1:10   69.1    19    1.9    31      4.0   864.7    0.00       0    76.4
 212    1:20   69.3    19    2.0   352      6.1   864.7    0.00       0    75.3
 212    1:30   67.5    21    2.1   342      6.0   864.6    0.00       0    74.3
 212    1:40   66.0    24    0.2   264      1.5   864.7    0.00       0    73.1
 212    1:50   65.3    23    0.7   330      2.5   864.6    0.00       0    71.6
 212    2:00   66.3    21    1.1     8      3.0   864.6    0.00       0    70.2
 212    2:10   66.6    20    2.8   356      5.0   864.6    0.00       0    69.2
 212    2:20   66.7    20    1.2    23      3.1   864.7    0.00       0    68.6
 212    2:30   66.2    22    0.5   123      1.5   864.7    0.00       0    68.0
 212    2:40   65.7    23    0.4   143      1.2   864.7    0.00       0    67.5
 212    2:50   65.9    21    0.7   309      3.2   864.9    0.00       0    66.8
 212    3:00   66.8    20    2.3    35      3.8   864.9    0.00       0    66.3
 212    3:10   65.8    26    1.2   106      2.8   864.9    0.00       0    66.2
 212    3:20   64.6    26    0.1    72      1.1   864.9    0.00       0    66.0
 212    3:30   63.9    28    0.2    87      1.2   865.0    0.00       0    65.7
 212    3:40   63.5    27    0.1    24      1.3   865.0    0.00       0    65.3
 212    3:50   63.4    26    0.1    26      1.5   865.0    0.00       0    64.8
 212    4:00   63.4    27    0.6   129      1.8   865.0    0.00       0    64.2
 212    4:10   63.5    26    0.6   353      2.1   864.9    0.00       0    63.6
 212    4:20   63.5    26    1.2   347      2.7   864.9    0.00       0    63.0
 212    4:30   63.1    27    0.7   300      1.8   864.8    0.00       0    62.5
 212    4:40   62.2    28    1.3   320      2.9   864.8    0.00       0    62.0
 212    4:50   61.7    28    0.0   349      1.0   864.8    0.00       0    61.3
 212    5:00   60.9    28    0.1   350      0.7   865.0    0.00       0    60.5
 212    5:10   60.3    31    0.0     0      0.0   865.0    0.00       0    59.8
 212    5:20   59.6    32    0.4    49      1.4   865.1    0.00       0    59.0
 212    5:30   59.5    32    0.3    50      2.6   865.1    0.00       1    58.2
 212    5:40   59.5    32    1.1    10      3.0   865.2    0.00       6    57.2
 212    5:50   59.3    32    2.1   354      3.4   865.4    0.00       9    56.5
 212    6:00   58.9    32    0.3   272      2.1   865.6    0.00      14    55.9
 212    6:10   59.1    34    0.0   335      0.7   865.6    0.00      19    55.7
 212    6:20   59.0    35    0.7   352      3.4   865.7    0.00      24    55.6
 212    6:30   59.6    32    1.4   347      2.9   865.8    0.00      90    55.7
 212    6:40   60.5    31    1.0   356      2.1   865.9    0.00     146    55.9

Return to Delta, Utah graphs page.


Western Regional Climate Center,wrcc@dri.edu